Time;durP1;ratioP1;P1;durP2;ratioP2;P2;SDS_P1;SDS_P2;PMS_P1;PMS_P2;Temp;Humidity;BMP_temperature;BMP_pressure;BME280_temperature;BME280_humidity;BME280_pressure;Samples;Min_cycle;Max_cycle;Signal;HPM_P1;HPM_P2
2022/01/05 00:00:07;;;;;;;9.27;3.33;;;5.90;99.90;;;3.30;100.00;98957.31;4952677;28;20145;-90
2022/01/05 00:02:35;;;;;;;9.50;3.28;;;5.90;99.90;;;3.29;100.00;98955.63;4969650;28;20132;-90
2022/01/05 00:05:02;;;;;;;9.25;3.30;;;5.90;99.90;;;3.33;100.00;98951.56;4969345;28;20031;-90
2022/01/05 00:07:30;;;;;;;8.65;3.40;;;5.90;99.90;;;3.36;100.00;98953.91;4970079;28;20084;-89
2022/01/05 00:09:59;;;;;;;9.48;3.55;;;5.90;99.90;;;3.40;100.00;98944.47;4968050;28;20062;-90
2022/01/05 00:12:27;;;;;;;9.85;3.58;;;5.90;99.90;;;3.39;100.00;98953.56;4949890;29;20051;-89
2022/01/05 00:14:54;;;;;;;10.80;4.15;;;5.90;99.90;;;3.41;100.00;98953.38;4936829;28;20215;-90
2022/01/05 00:17:21;;;;;;;11.27;4.00;;;5.90;99.90;;;3.40;100.00;98947.16;4952303;28;20047;-89
2022/01/05 00:19:48;;;;;;;9.77;4.05;;;5.90;99.90;;;3.45;100.00;98960.09;4952579;28;20531;-89
2022/01/05 00:22:16;;;;;;;9.43;4.47;;;5.90;99.90;;;3.45;100.00;98954.72;4969026;28;20042;-90
2022/01/05 00:24:43;;;;;;;11.05;4.93;;;5.90;99.90;;;3.38;100.00;98961.81;4951484;28;20060;-90
2022/01/05 00:27:12;;;;;;;12.07;4.63;;;5.90;99.90;;;3.37;100.00;98966.34;4969541;28;20077;-91
2022/01/05 00:29:40;;;;;;;13.32;4.55;;;5.90;99.90;;;3.41;100.00;98965.00;4952628;28;20459;-91
2022/01/05 00:32:08;;;;;;;9.38;4.53;;;5.90;99.90;;;3.45;100.00;98969.00;4951675;28;20125;-90
2022/01/05 00:34:36;;;;;;;14.45;4.80;;;5.90;99.90;;;3.43;100.00;98973.72;4968211;28;20045;-90
2022/01/05 00:37:04;;;;;;;12.23;5.53;;;5.90;99.90;;;3.48;100.00;98968.66;4968200;28;20174;-89
2022/01/05 00:39:34;;;;;;;12.27;4.80;;;5.90;99.90;;;3.59;100.00;98961.19;4969694;28;20050;-89
2022/01/05 00:42:02;;;;;;;13.48;5.22;;;5.90;99.90;;;3.63;100.00;98943.66;4968814;28;20506;-90
2022/01/05 00:44:30;;;;;;;17.02;5.20;;;5.90;99.90;;;3.68;100.00;98955.56;4969124;28;20129;-90
2022/01/05 00:46:58;;;;;;;12.50;4.63;;;6.00;99.90;;;3.59;100.00;98955.78;4968078;28;20511;-89
2022/01/05 00:49:25;;;;;;;15.40;5.38;;;6.10;99.90;;;3.53;100.00;98962.72;4973463;28;20129;-90
2022/01/05 00:51:52;;;;;;;14.50;5.05;;;6.00;99.90;;;3.64;100.00;98969.56;4972845;28;20070;-90
2022/01/05 00:54:20;;;;;;;15.82;5.30;;;6.00;99.90;;;3.55;100.00;98963.38;4955984;28;20532;-92
2022/01/05 00:56:47;;;;;;;11.75;5.00;;;6.00;99.90;;;3.57;100.00;98963.22;4972761;28;20130;-89
2022/01/05 00:59:14;;;;;;;15.88;5.18;;;5.90;99.90;;;3.60;100.00;98963.69;4955912;28;20070;-90
2022/01/05 01:01:43;;;;;;;12.88;5.40;;;5.90;99.90;;;3.61;100.00;98961.84;4971442;28;20045;-90
2022/01/05 01:04:10;;;;;;;12.43;4.88;;;5.90;99.90;;;3.57;100.00;98952.44;4973587;28;20532;-90
2022/01/05 01:06:38;;;;;;;13.75;4.75;;;5.90;99.90;;;3.56;100.00;98964.22;4970968;28;20046;-90
2022/01/05 01:09:05;;;;;;;18.38;5.53;;;5.90;99.90;;;3.56;100.00;98969.59;4955869;28;20731;-91
2022/01/05 01:11:32;;;;;;;20.63;6.40;;;5.90;99.90;;;3.56;100.00;98966.91;4972666;28;20158;-89
2022/01/05 01:14:00;;;;;;;14.55;4.57;;;5.90;99.90;;;3.58;100.00;98976.50;4956284;28;20523;-90
2022/01/05 01:16:27;;;;;;;12.98;4.60;;;5.90;99.90;;;3.60;100.00;98973.59;4954927;28;20085;-89
2022/01/05 01:18:55;;;;;;;15.63;5.32;;;5.90;99.90;;;3.64;100.00;98986.53;4973165;28;20121;-89
2022/01/05 01:21:23;;;;;;;15.25;5.32;;;5.90;99.90;;;3.65;100.00;98988.19;4970564;28;20141;-89
2022/01/05 01:23:55;;;;;;;19.15;5.95;;;5.90;99.90;;;3.56;100.00;98980.34;4972857;28;20081;-90
2022/01/05 01:26:24;;;;;;;15.15;4.90;;;5.90;99.90;;;3.53;100.00;98995.00;4954455;28;20475;-89
2022/01/05 01:28:52;;;;;;;13.50;5.00;;;5.90;99.90;;;3.55;100.00;98986.75;4972900;28;20047;-91
2022/01/05 01:31:19;;;;;;;18.05;5.13;;;5.90;99.90;;;3.58;100.00;98991.78;4954775;28;20290;-90
2022/01/05 01:33:48;;;;;;;12.73;4.35;;;6.00;99.90;;;3.54;100.00;98985.91;4973030;28;20074;-90
2022/01/05 01:36:17;;;;;;;17.15;4.22;;;6.00;99.90;;;3.47;100.00;98996.53;4954767;28;20093;-90
2022/01/05 01:38:44;;;;;;;8.32;3.72;;;5.90;99.90;;;3.39;100.00;98993.91;4955503;28;20054;-90
2022/01/05 01:41:12;;;;;;;12.10;3.95;;;5.90;99.90;;;3.44;100.00;98986.13;4972175;28;20055;-90
2022/01/05 01:43:40;;;;;;;13.60;4.10;;;5.90;99.90;;;3.45;100.00;98993.19;4972970;28;20051;-90
2022/01/05 01:46:08;;;;;;;15.70;3.72;;;5.80;99.90;;;3.47;100.00;99003.78;4954413;28;20476;-91
2022/01/05 01:48:36;;;;;;;16.25;3.72;;;5.80;99.90;;;3.38;100.00;98994.06;4972690;28;20109;-90
2022/01/05 01:51:03;;;;;;;16.15;3.70;;;5.80;99.90;;;3.41;100.00;98997.25;4971889;28;20050;-90
2022/01/05 01:53:32;;;;;;;13.63;2.90;;;5.80;99.90;;;3.41;100.00;99005.31;4955191;28;20054;-90
2022/01/05 01:56:03;;;;;;;14.45;3.30;;;5.80;99.90;;;3.36;100.00;99005.00;4971955;28;20516;-89
2022/01/05 01:58:35;;;;;;;18.48;3.70;;;5.80;99.90;;;3.26;100.00;98999.84;4955373;28;20109;-90
2022/01/05 02:01:03;;;;;;;10.23;2.97;;;5.80;99.90;;;3.25;100.00;99003.53;4971733;28;20101;-91
2022/01/05 02:03:31;;;;;;;13.07;3.50;;;5.70;99.90;;;3.18;100.00;98999.88;4961008;28;20133;-89
2022/01/05 02:05:58;;;;;;;12.35;3.40;;;5.70;99.90;;;3.26;100.00;99009.78;4979225;23;20042;-84
2022/01/05 02:08:26;;;;;;;15.95;3.40;;;5.70;99.90;;;3.22;100.00;99011.09;4991644;28;20057;-84
2022/01/05 02:10:55;;;;;;;13.50;4.30;;;5.70;99.90;;;3.30;100.00;99009.22;4991713;28;20077;-84
2022/01/05 02:13:22;;;;;;;16.40;5.22;;;5.70;99.90;;;3.27;100.00;99008.75;4991114;28;20512;-85
2022/01/05 02:15:50;;;;;;;17.33;4.90;;;5.60;99.90;;;3.19;100.00;99008.78;4990665;28;20046;-84
2022/01/05 02:21:06;;;;;;;18.05;6.13;;;5.60;99.90;;;3.12;100.00;99014.00;4990242;28;20126;-85
2022/01/05 02:23:34;;;;;;;19.38;6.90;;;5.60;99.90;;;3.18;100.00;99016.03;4991489;28;20074;-85
2022/01/05 02:26:01;;;;;;;17.45;6.03;;;5.60;99.90;;;3.22;100.00;99014.66;4990258;28;20042;-85
2022/01/05 02:28:30;;;;;;;19.15;6.18;;;5.60;99.90;;;3.25;100.00;99013.44;4991306;28;20054;-84
2022/01/05 02:30:57;;;;;;;17.92;6.43;;;5.60;99.90;;;3.17;100.00;99013.50;4990534;28;20101;-85
2022/01/05 02:33:26;;;;;;;18.08;6.40;;;5.60;99.90;;;3.11;100.00;99023.91;4990879;28;20054;-85
2022/01/05 02:35:54;;;;;;;18.02;6.50;;;5.60;99.90;;;3.15;100.00;99023.59;4990156;28;20034;-84
2022/01/05 02:38:23;;;;;;;18.30;6.78;;;5.60;99.90;;;3.16;100.00;99031.47;4990869;28;20124;-84
2022/01/05 02:40:52;;;;;;;22.42;7.00;;;5.50;99.90;;;3.17;100.00;99032.31;4991067;28;20042;-84
2022/01/05 02:43:20;;;;;;;22.52;7.55;;;5.60;99.90;;;3.09;100.00;99025.94;4972947;28;20430;-85
2022/01/05 02:45:48;;;;;;;20.00;6.50;;;5.80;99.90;;;3.09;100.00;99025.13;4990181;28;20123;-84
2022/01/05 02:48:15;;;;;;;19.58;6.82;;;5.50;99.90;;;3.18;100.00;99039.34;4990885;28;20140;-84
2022/01/05 02:50:42;;;;;;;21.40;6.95;;;5.50;99.90;;;3.18;100.00;99036.66;4990403;28;20495;-85
2022/01/05 02:53:10;;;;;;;20.27;7.00;;;5.50;99.90;;;3.17;100.00;99035.00;4990220;28;20574;-84
2022/01/05 02:55:38;;;;;;;17.02;6.32;;;5.50;99.90;;;3.15;100.00;99037.03;4977155;28;20424;-84
2022/01/05 02:58:06;;;;;;;15.40;6.43;;;5.50;99.90;;;2.98;100.00;99042.44;4990604;28;20046;-84
2022/01/05 03:00:33;;;;;;;18.77;5.85;;;5.50;99.90;;;2.97;100.00;99040.78;4990857;28;20462;-85
2022/01/05 03:03:00;;;;;;;15.32;5.15;;;5.50;99.90;;;2.88;100.00;99048.00;4989600;28;20498;-84
2022/01/05 03:05:28;;;;;;;15.20;5.57;;;5.50;99.90;;;2.94;100.00;99054.53;4989255;28;20117;-84
2022/01/05 03:07:55;;;;;;;17.08;5.40;;;5.40;99.90;;;2.89;100.00;99056.91;4973352;28;20074;-84
2022/01/05 03:10:23;;;;;;;17.33;5.28;;;5.40;99.90;;;2.87;100.00;99059.75;4970719;28;20070;-85
2022/01/05 03:12:51;;;;;;;21.92;5.80;;;5.40;99.90;;;2.86;100.00;99063.47;4970288;28;20134;-84
2022/01/05 03:15:19;;;;;;;16.70;5.07;;;5.30;99.90;;;2.87;100.00;99075.03;4977772;28;20566;-85
2022/01/05 03:17:46;;;;;;;16.35;5.60;;;5.30;99.90;;;2.86;100.00;99076.06;4990250;28;20435;-85
2022/01/05 03:20:17;;;;;;;15.60;5.10;;;5.30;99.90;;;2.85;100.00;99088.66;4990453;28;20417;-84
2022/01/05 03:22:46;;;;;;;15.82;5.55;;;5.30;99.90;;;2.78;100.00;99081.44;4989475;28;20856;-84
2022/01/05 03:25:16;;;;;;;16.55;5.32;;;5.20;99.90;;;2.74;100.00;99086.31;4989811;28;20050;-84
2022/01/05 03:27:45;;;;;;;24.02;5.18;;;5.20;99.90;;;2.62;100.00;99087.66;4990223;28;20122;-84
2022/01/05 03:30:18;;;;;;;16.10;5.40;;;5.20;99.90;;;2.57;100.00;99090.88;4990256;28;20066;-85
2022/01/05 03:33:06;;;;;;;18.52;5.00;;;5.10;99.90;;;2.52;100.00;99093.22;4987564;28;20137;-84
2022/01/05 03:35:45;;;;;;;18.20;4.88;;;5.10;99.90;;;2.54;100.00;99104.63;4989516;28;20118;-85
2022/01/05 03:38:15;;;;;;;19.77;4.70;;;5.10;99.90;;;2.43;100.00;99111.16;4989765;28;20062;-84
2022/01/05 03:40:43;;;;;;;17.02;4.85;;;5.10;99.90;;;2.48;100.00;99116.03;4989778;28;20134;-84
2022/01/05 03:43:12;;;;;;;17.88;4.20;;;5.10;99.90;;;2.45;100.00;99105.63;4988695;28;20046;-84
2022/01/05 03:45:41;;;;;;;16.58;4.70;;;5.00;99.90;;;2.38;100.00;99112.66;4989054;28;20566;-84
2022/01/05 03:48:11;;;;;;;14.68;4.00;;;5.00;99.90;;;2.26;100.00;99121.03;4989535;28;20133;-84
2022/01/05 03:50:39;;;;;;;19.10;4.00;;;4.90;99.90;;;2.33;100.00;99119.38;4989548;28;20073;-84
2022/01/05 03:53:08;;;;;;;13.68;3.65;;;4.90;99.90;;;2.22;100.00;99129.59;4987593;28;20047;-84
2022/01/05 03:55:37;;;;;;;12.65;3.95;;;4.90;99.90;;;2.17;100.00;99137.28;4971391;28;20134;-84
2022/01/05 03:58:05;;;;;;;17.30;3.80;;;4.90;99.90;;;2.16;100.00;99141.84;4989562;28;20054;-85
2022/01/05 04:00:35;;;;;;;16.58;3.95;;;4.80;99.90;;;2.13;100.00;99136.78;4989512;28;20049;-85
2022/01/05 04:03:04;;;;;;;18.48;3.42;;;4.80;99.90;;;2.12;100.00;99129.75;4988560;28;20487;-84
2022/01/05 04:05:32;;;;;;;17.30;3.70;;;4.70;99.90;;;2.12;100.00;99138.63;4986773;28;20062;-85
2022/01/05 04:07:59;;;;;;;16.05;3.92;;;4.70;99.90;;;2.22;100.00;99148.38;4989339;28;20049;-85
2022/01/05 04:10:27;;;;;;;16.85;3.72;;;4.70;99.90;;;2.16;100.00;99147.19;4989392;28;20439;-85
2022/01/05 04:12:54;;;;;;;14.95;3.60;;;4.70;99.90;;;2.12;100.00;99156.59;4987927;28;20501;-85
2022/01/05 04:15:22;;;;;;;10.73;3.50;;;4.70;99.90;;;2.16;100.00;99160.63;4988677;28;20046;-84
2022/01/05 04:17:50;;;;;;;15.85;3.88;;;4.60;99.90;;;2.23;100.00;99158.97;4989109;28;20053;-85
2022/01/05 04:20:19;;;;;;;11.88;3.20;;;4.60;99.90;;;2.10;100.00;99161.28;4988344;28;20048;-85
2022/01/05 04:22:47;;;;;;;14.57;3.55;;;4.60;99.90;;;2.05;100.00;99167.13;4987898;28;20125;-85
2022/01/05 04:25:15;;;;;;;19.90;4.32;;;4.50;99.90;;;2.05;100.00;99182.38;4987394;28;20069;-85
2022/01/05 04:27:42;;;;;;;18.27;4.18;;;4.60;99.90;;;1.92;100.00;99181.03;4988073;28;20038;-85
2022/01/05 04:30:12;;;;;;;20.02;4.13;;;4.50;99.90;;;1.93;100.00;99184.53;4989026;28;20078;-84
2022/01/05 04:32:40;;;;;;;16.58;4.38;;;4.50;99.90;;;1.95;100.00;99183.34;4987448;28;20050;-85
2022/01/05 04:35:11;;;;;;;18.08;4.68;;;4.50;99.90;;;1.80;100.00;99187.66;4988767;28;20121;-85
2022/01/05 04:37:41;;;;;;;19.15;5.72;;;4.50;99.90;;;1.79;100.00;99188.69;4987714;28;20070;-84
2022/01/05 04:40:10;;;;;;;21.55;5.10;;;4.40;99.90;;;1.80;100.00;99190.34;4988845;28;20050;-84
2022/01/05 04:42:37;;;;;;;21.95;5.70;;;4.40;99.90;;;1.79;100.00;99191.34;4970543;28;20069;-84
2022/01/05 04:45:06;;;;;;;15.23;4.57;;;4.40;99.90;;;1.82;100.00;99191.00;4988876;28;20078;-84
2022/01/05 04:47:33;;;;;;;23.08;5.05;;;4.40;99.90;;;1.82;100.00;99191.00;4988666;28;20164;-85
2022/01/05 04:50:01;;;;;;;20.48;5.70;;;4.30;99.90;;;1.88;100.00;99190.38;4988920;28;20050;-83
2022/01/05 04:52:28;;;;;;;24.55;5.70;;;4.30;99.90;;;1.72;100.00;99184.94;4987948;28;20048;-84
2022/01/05 04:54:56;;;;;;;19.30;5.07;;;4.30;99.90;;;1.66;100.00;99189.13;4988334;28;20051;-84
2022/01/05 04:57:24;;;;;;;22.08;5.85;;;4.30;99.90;;;1.74;100.00;99193.69;4988480;28;20130;-84
2022/01/05 04:59:51;;;;;;;21.75;5.75;;;4.30;99.90;;;1.87;100.00;99202.13;4988777;28;20555;-84
2022/01/05 05:02:19;;;;;;;17.30;4.75;;;4.30;99.90;;;1.92;100.00;99194.44;4987876;28;20121;-84
2022/01/05 05:04:46;;;;;;;15.55;4.82;;;4.30;99.90;;;1.95;100.00;99199.47;4988731;28;20066;-84
2022/01/05 05:07:13;;;;;;;19.83;5.00;;;4.30;99.90;;;1.86;100.00;99188.84;4988749;28;20137;-87
2022/01/05 05:09:40;;;;;;;18.38;4.22;;;4.30;99.90;;;1.87;100.00;99195.91;4989018;28;20117;-80
2022/01/05 05:12:11;;;;;;;21.92;4.22;;;4.30;99.90;;;1.93;100.00;99190.72;4987628;28;20066;-81
2022/01/05 05:14:38;;;;;;;22.83;4.72;;;4.30;99.90;;;1.81;100.00;99192.03;4988906;28;20038;-80
2022/01/05 05:17:07;;;;;;;22.80;3.88;;;4.30;99.90;;;1.69;100.00;99193.31;4988536;28;20116;-80
2022/01/05 05:19:34;;;;;;;14.70;3.95;;;4.30;99.90;;;1.72;100.00;99209.09;4988706;28;20051;-80
2022/01/05 05:22:01;;;;;;;20.05;3.83;;;4.30;99.90;;;1.70;100.00;99201.19;4987957;28;20489;-80
2022/01/05 05:24:28;;;;;;;18.88;3.88;;;4.30;99.90;;;1.79;100.00;99210.13;4988734;28;20070;-80
2022/01/05 05:26:55;;;;;;;21.85;4.32;;;4.50;99.90;;;1.84;100.00;99207.78;4988977;28;20129;-80
2022/01/05 05:29:24;;;;;;;15.45;3.38;;;4.40;99.90;;;1.91;100.00;99208.84;4988610;28;20551;-80
2022/01/05 05:31:51;;;;;;;17.40;3.90;;;4.30;99.90;;;1.81;100.00;99204.59;4988228;28;20049;-80
2022/01/05 05:34:18;;;;;;;13.88;3.03;;;4.30;99.90;;;1.85;100.00;99204.13;4991972;28;20069;-80
2022/01/05 05:36:46;;;;;;;22.15;4.40;;;4.30;99.90;;;1.97;100.00;99211.88;4992239;28;20145;-80
2022/01/05 05:39:13;;;;;;;17.02;3.40;;;4.30;99.90;;;1.96;100.00;99211.03;4990819;28;20565;-80
2022/01/05 05:41:42;;;;;;;19.77;3.75;;;4.30;99.90;;;2.02;100.00;99204.16;4991468;28;20440;-80
2022/01/05 05:44:09;;;;;;;18.75;3.53;;;4.30;99.90;;;1.94;100.00;99199.63;4992031;28;20052;-80
2022/01/05 05:46:41;;;;;;;18.35;3.38;;;4.30;99.90;;;1.93;100.00;99200.63;4991882;28;20132;-80
2022/01/05 05:49:08;;;;;;;13.40;3.30;;;4.30;99.90;;;1.89;100.00;99200.09;4992053;28;20138;-80
2022/01/05 05:51:35;;;;;;;13.23;3.33;;;4.30;99.90;;;1.85;100.00;99209.47;4991114;28;20057;-80
2022/01/05 05:54:04;;;;;;;18.25;3.70;;;4.40;99.90;;;1.92;100.00;99206.97;4991921;28;20121;-80
2022/01/05 05:56:31;;;;;;;22.70;3.67;;;4.40;99.90;;;1.85;100.00;99204.13;4991522;28;20050;-80
2022/01/05 05:58:59;;;;;;;12.15;3.78;;;4.30;99.90;;;1.83;100.00;99208.81;4991753;28;20230;-80
2022/01/05 06:01:26;;;;;;;22.45;4.32;;;4.40;99.90;;;1.77;100.00;99209.44;4991076;28;20154;-80
2022/01/05 06:03:54;;;;;;;17.05;4.43;;;4.30;99.90;;;1.85;100.00;99214.84;4991620;28;20050;-79
2022/01/05 06:06:22;;;;;;;18.33;4.43;;;4.30;99.90;;;1.90;100.00;99204.44;4991313;28;20057;-79
2022/01/05 06:08:49;;;;;;;21.27;4.05;;;4.30;99.90;;;1.91;100.00;99208.00;4989924;28;20129;-80
2022/01/05 06:11:16;;;;;;;20.67;4.65;;;4.30;99.90;;;1.87;100.00;99207.47;4982732;28;20145;-80
2022/01/05 06:13:43;;;;;;;20.50;4.20;;;4.30;99.90;;;1.85;100.00;99220.22;4974045;28;20096;-80
2022/01/05 06:16:11;;;;;;;18.58;4.88;;;4.30;99.90;;;1.98;100.00;99218.91;4991382;28;20133;-79
2022/01/05 06:18:38;;;;;;;20.75;5.45;;;4.30;99.90;;;1.92;100.00;99215.91;4991029;28;20558;-80
2022/01/05 06:21:06;;;;;;;18.83;4.97;;;4.40;99.90;;;1.81;100.00;99218.00;4990594;28;20515;-79
2022/01/05 06:23:34;;;;;;;24.98;4.40;;;4.40;99.90;;;1.84;100.00;99229.25;4991337;28;20050;-78
2022/01/05 06:26:01;;;;;;;19.23;4.85;;;4.30;99.90;;;1.76;100.00;99227.38;4991140;28;20060;-80
2022/01/05 06:28:28;;;;;;;18.05;4.82;;;4.30;99.90;;;1.77;100.00;99233.56;4991441;28;20080;-79
2022/01/05 06:30:56;;;;;;;23.30;5.40;;;4.30;99.90;;;1.78;100.00;99235.25;4990827;28;20045;-80
2022/01/05 06:33:23;;;;;;;18.67;4.60;;;4.30;99.90;;;1.86;100.00;99248.72;4989635;28;20046;-80
2022/01/05 06:35:50;;;;;;;17.10;4.15;;;4.40;99.90;;;1.99;100.00;99247.44;4986742;28;20117;-80
2022/01/05 06:38:19;;;;;;;17.60;4.32;;;4.30;99.90;;;2.06;100.00;99245.81;4973308;28;20165;-80
2022/01/05 06:40:46;;;;;;;21.08;4.70;;;4.30;99.90;;;1.97;100.00;99249.44;4989353;28;20129;-80
2022/01/05 06:43:14;;;;;;;20.42;4.38;;;4.30;99.90;;;1.99;100.00;99248.28;4989433;28;20133;-80
2022/01/05 06:45:41;;;;;;;15.63;4.13;;;4.30;99.90;;;2.00;100.00;99254.47;4990414;28;20053;-80
2022/01/05 06:48:08;;;;;;;21.52;4.32;;;4.40;99.90;;;1.98;100.00;99253.78;4990578;28;20138;-80
2022/01/05 06:50:36;;;;;;;20.00;4.25;;;4.40;99.90;;;2.00;100.00;99251.78;4990884;28;20483;-80
2022/01/05 06:53:03;;;;;;;19.02;4.90;;;4.40;99.90;;;2.01;100.00;99256.16;4989273;28;20570;-80
2022/01/05 06:55:32;;;;;;;23.30;3.92;;;4.40;99.90;;;1.99;100.00;99263.53;4987911;28;20042;-80
2022/01/05 06:57:59;;;;;;;15.95;4.13;;;4.40;99.90;;;2.00;100.00;99258.03;4988133;28;20137;-80
2022/01/05 07:00:28;;;;;;;23.42;4.15;;;4.40;99.90;;;2.03;100.00;99254.16;4987616;28;20038;-82
2022/01/05 07:02:55;;;;;;;13.70;3.90;;;4.40;99.90;;;2.07;100.00;99256.34;4988751;28;20511;-81
2022/01/05 07:05:22;;;;;;;18.25;3.72;;;4.40;99.90;;;2.07;100.00;99255.50;4985107;28;20129;-81
2022/01/05 07:07:52;;;;;;;14.73;3.55;;;4.50;99.90;;;2.05;100.00;99252.16;4986702;28;20042;-81
2022/01/05 07:10:20;;;;;;;24.83;3.60;;;4.50;99.90;;;2.10;100.00;99257.88;4988338;28;20104;-81
2022/01/05 07:12:48;;;;;;;19.08;3.80;;;4.40;99.90;;;2.00;100.00;99260.69;4988690;28;20388;-81
2022/01/05 07:15:16;;;;;;;19.27;4.10;;;4.40;99.90;;;2.02;100.00;99265.88;4973667;28;20066;-81
2022/01/05 07:17:44;;;;;;;18.85;3.90;;;4.40;99.90;;;1.97;100.00;99268.22;4985928;28;20129;-81
2022/01/05 07:20:12;;;;;;;15.18;3.40;;;4.40;99.90;;;1.97;100.00;99271.75;4989136;28;20510;-81
2022/01/05 07:22:39;;;;;;;22.88;3.97;;;4.40;99.90;;;1.88;100.00;99273.53;4971774;28;20046;-81
2022/01/05 07:25:09;;;;;;;18.90;3.92;;;4.40;99.90;;;1.77;100.00;99276.47;4989084;28;20054;-81
2022/01/05 07:27:37;;;;;;;16.98;3.95;;;4.30;99.90;;;1.86;100.00;99280.91;4988300;28;20066;-85
2022/01/05 07:30:08;;;;;;;16.30;4.00;;;4.30;99.90;;;1.93;100.00;99271.22;4983678;28;20050;-85
2022/01/05 07:32:36;;;;;;;21.38;3.70;;;4.30;99.90;;;1.94;100.00;99269.38;4986566;28;20113;-84
2022/01/05 07:35:04;;;;;;;17.85;3.60;;;4.30;99.90;;;1.91;100.00;99278.59;4993002;28;20140;-84
2022/01/05 07:37:32;;;;;;;19.40;3.70;;;4.30;99.90;;;1.94;100.00;99288.16;4986063;28;20070;-85
2022/01/05 07:39:59;;;;;;;15.80;3.53;;;4.30;99.90;;;1.93;100.00;99276.59;4989062;28;20042;-86
2022/01/05 07:42:27;;;;;;;23.23;5.68;;;4.30;99.90;;;2.00;100.00;99281.31;4981713;28;20121;-86
2022/01/05 07:44:57;;;;;;;26.55;5.72;;;4.30;99.90;;;2.09;100.00;99278.50;4988943;28;20077;-86
2022/01/05 07:47:25;;;;;;;23.38;4.25;;;4.40;99.90;;;2.05;100.00;99295.91;4982090;28;20443;-84
2022/01/05 07:49:52;;;;;;;21.35;3.80;;;4.40;99.90;;;2.07;100.00;99304.66;4987361;28;20101;-82
2022/01/05 07:52:20;;;;;;;19.52;4.03;;;4.40;99.90;;;2.14;100.00;99308.38;4988639;28;20074;-82
2022/01/05 07:54:51;;;;;;;21.65;4.75;;;4.40;99.90;;;2.16;100.00;99305.53;4989168;28;20046;-82
2022/01/05 07:57:18;;;;;;;19.63;3.80;;;4.50;99.90;;;2.21;100.00;99305.91;4988231;28;20545;-82
2022/01/05 07:59:46;;;;;;;20.38;4.47;;;4.50;99.90;;;2.25;100.00;99307.28;4988937;28;20569;-81
2022/01/05 08:02:13;;;;;;;20.17;4.80;;;4.50;99.90;;;2.27;100.00;99318.69;4988309;28;20046;-82
2022/01/05 08:04:46;;;;;;;21.30;4.18;;;4.50;99.90;;;2.29;100.00;99308.63;4988270;28;20153;-82
2022/01/05 08:07:14;;;;;;;19.48;4.18;;;4.50;99.90;;;2.39;100.00;99313.03;4997631;23;20108;-88
2022/01/05 08:09:41;;;;;;;25.15;4.40;;;4.60;99.90;;;2.41;100.00;99327.97;4983720;28;20101;-85
2022/01/05 08:12:10;;;;;;;18.23;4.63;;;4.60;99.90;;;2.40;100.00;99326.31;4982096;28;20070;-86
2022/01/05 08:14:37;;;;;;;18.33;4.28;;;4.60;99.90;;;2.39;100.00;99315.72;4982347;28;20555;-83
2022/01/05 08:17:05;;;;;;;27.73;5.00;;;4.70;99.90;;;2.51;100.00;99315.28;4962764;28;20057;-83
2022/01/05 08:19:33;;;;;;;14.85;3.70;;;4.70;99.90;;;2.40;100.00;99323.63;4960892;28;20070;-85
2022/01/05 08:22:01;;;;;;;20.60;3.88;;;4.70;99.90;;;2.51;100.00;99325.16;4939919;28;20113;-82
2022/01/05 08:24:29;;;;;;;19.98;4.63;;;4.70;99.90;;;2.56;100.00;99328.19;4959680;28;20073;-82
2022/01/05 08:26:56;;;;;;;17.52;3.88;;;4.80;99.90;;;2.51;100.00;99334.06;4955022;28;20109;-83
2022/01/05 08:29:23;;;;;;;22.35;4.53;;;4.70;99.90;;;2.50;100.00;99324.31;4960490;28;20133;-82
2022/01/05 08:31:51;;;;;;;17.85;4.18;;;4.80;99.90;;;2.56;100.00;99330.06;4964343;28;20047;-82
2022/01/05 08:34:18;;;;;;;24.20;4.10;;;4.80;99.90;;;2.60;100.00;99331.41;4966427;28;20050;-82
2022/01/05 08:36:46;;;;;;;25.15;3.83;;;4.80;99.90;;;2.64;100.00;99330.91;4960407;28;20210;-82
2022/01/05 08:39:15;;;;;;;17.52;4.18;;;4.80;99.90;;;2.69;100.00;99331.25;4968060;28;20078;-82
2022/01/05 08:41:42;;;;;;;16.77;3.92;;;4.90;99.90;;;2.72;100.00;99330.94;4960433;28;20057;-82
2022/01/05 08:44:11;;;;;;;14.50;3.53;;;4.90;99.90;;;2.78;100.00;99323.22;4952833;28;20505;-82
2022/01/05 08:46:38;;;;;;;17.90;4.00;;;4.90;99.90;;;2.76;100.00;99328.78;4965287;28;20051;-82
2022/01/05 08:49:05;;;;;;;16.75;3.95;;;4.90;99.90;;;2.79;100.00;99324.91;4964906;28;20054;-83
2022/01/05 08:51:33;;;;;;;18.95;4.13;;;4.90;99.90;;;2.83;100.00;99331.63;4966265;28;20039;-82
2022/01/05 08:54:00;;;;;;;25.38;4.93;;;5.00;99.90;;;2.74;100.00;99323.56;4958554;28;20054;-83
2022/01/05 08:56:29;;;;;;;25.77;4.97;;;5.00;99.90;;;2.71;100.00;99323.88;4956321;28;20847;-80
2022/01/05 08:58:56;;;;;;;19.52;4.72;;;5.00;99.90;;;2.83;100.00;99327.09;4954738;28;20043;-80
2022/01/05 09:01:24;;;;;;;20.42;3.92;;;5.00;99.90;;;2.88;100.00;99321.25;4967480;28;20043;-80
2022/01/05 09:03:53;;;;;;;18.42;4.80;;;5.00;99.90;;;2.83;100.00;99310.13;4951229;28;20594;-80
2022/01/05 09:06:20;;;;;;;23.60;4.78;;;5.00;99.90;;;2.87;100.00;99320.38;4964121;28;20043;-80
2022/01/05 09:08:47;;;;;;;18.77;5.15;;;5.00;99.90;;;2.85;100.00;99303.59;4962063;28;20562;-80
2022/01/05 09:11:15;;;;;;;21.27;5.60;;;5.00;99.90;;;2.88;100.00;99314.00;4964496;28;20515;-80
2022/01/05 09:13:44;;;;;;;21.48;5.40;;;5.00;99.90;;;2.83;100.00;99312.81;4969091;28;20122;-80
2022/01/05 09:16:11;;;;;;;21.17;5.18;;;5.00;99.90;;;2.84;100.00;99312.66;4954364;28;20424;-80
2022/01/05 09:18:39;;;;;;;18.88;5.45;;;5.10;99.90;;;2.93;100.00;99314.38;4971883;28;20081;-80
2022/01/05 09:21:06;;;;;;;16.38;4.63;;;5.10;99.90;;;3.00;100.00;99322.59;4968485;28;20066;-80
2022/01/05 09:23:33;;;;;;;21.10;5.13;;;5.10;99.90;;;3.03;100.00;99332.19;4959242;28;20163;-80
2022/01/05 09:26:02;;;;;;;25.10;6.20;;;5.10;99.90;;;3.04;100.00;99329.31;4968249;28;20536;-80
2022/01/05 09:28:29;;;;;;;19.38;5.50;;;5.20;99.90;;;3.13;100.00;99346.31;4971136;28;20062;-80
2022/01/05 09:30:58;;;;;;;18.48;6.70;;;5.20;99.90;;;3.13;100.00;99344.47;4979103;28;20172;-80
2022/01/05 09:33:25;;;;;;;21.55;6.10;;;5.10;99.90;;;3.14;100.00;99331.84;4960531;28;20050;-83
2022/01/05 09:36:06;;;;;;;24.52;7.32;;;5.10;99.90;;;3.08;100.00;99330.66;4978542;28;20045;-80
2022/01/05 09:41:56;;;;;;;17.45;6.35;;;5.20;99.90;;;3.11;100.00;99354.53;4977811;28;20047;-80
2022/01/05 09:44:12;;;;;;;24.92;6.85;;;5.20;99.90;;;3.17;100.00;99342.28;4978414;28;20458;-79
2022/01/05 09:47:03;;;;;;;20.98;6.85;;;5.20;99.90;;;3.22;100.00;99344.47;4975958;28;20112;-82
2022/01/05 09:49:36;;;;;;;18.92;7.80;;;5.30;99.90;;;3.19;100.00;99353.72;4961845;28;20050;-83
2022/01/05 09:52:07;;;;;;;22.73;7.60;;;5.30;99.90;;;3.26;100.00;99348.53;4969287;28;20578;-81
2022/01/05 09:54:35;;;;;;;17.52;6.40;;;5.30;99.90;;;3.39;100.00;99337.25;4960432;28;20578;-81
2022/01/05 09:57:04;;;;;;;29.80;6.75;;;5.40;99.90;;;3.44;100.00;99341.13;4970808;28;20072;-82
2022/01/05 09:59:35;;;;;;;29.45;5.60;;;5.40;99.90;;;3.39;100.00;99338.13;4946748;28;20059;-81
2022/01/05 10:02:05;;;;;;;17.17;5.95;;;5.50;99.90;;;3.42;100.00;99348.53;4970807;28;20043;-82
2022/01/05 10:04:33;;;;;;;25.00;6.20;;;5.50;99.90;;;3.47;100.00;99340.78;4970733;28;20055;-81
2022/01/05 10:07:00;;;;;;;17.58;6.35;;;5.60;99.90;;;3.53;100.00;99340.13;4969227;28;20071;-82
2022/01/05 10:09:28;;;;;;;18.42;6.15;;;5.60;99.90;;;3.55;100.00;99347.19;4952764;28;20122;-81
2022/01/05 10:11:55;;;;;;;20.73;7.15;;;5.60;99.90;;;3.50;100.00;99321.66;4964075;28;20070;-82
2022/01/05 10:14:22;;;;;;;21.23;6.85;;;5.60;99.90;;;3.46;100.00;99341.78;4964725;28;20062;-81
2022/01/05 10:17:07;;;;;;;23.00;6.55;;;5.60;99.90;;;3.58;100.00;99349.53;4966945;28;20051;-81
2022/01/05 10:19:36;;;;;;;22.55;6.35;;;5.60;99.90;;;3.51;100.00;99350.22;4960931;28;20149;-82
2022/01/05 10:22:05;;;;;;;19.58;6.47;;;5.60;99.90;;;3.51;100.00;99362.81;4965881;28;20047;-82
2022/01/05 10:24:47;;;;;;;27.48;6.75;;;5.60;99.90;;;3.43;100.00;99360.97;4967338;28;20034;-82
2022/01/05 10:27:18;;;;;;;22.95;6.05;;;5.60;99.90;;;3.38;100.00;99351.72;4958981;28;20070;-81
2022/01/05 10:30:00;;;;;;;18.35;6.20;;;5.60;99.90;;;3.40;100.00;99361.28;4965012;28;20047;-81